Nearby METAR Reports

 

KSJC - San Jose, California, USA
Distance from station: NE 9mi, 14km
Updated: Mon, 06-Jul-2020 10:53pm PDT
Few Clouds
Few Clouds
 Wind from N
Wind: N 7 mph , 11 km/h
Temperature: 61°F , 16°C
Dew Point: 48°F , 9°C
Humidity: 63%
Barometer: 29.99 inHg , 1015.6 hPa
Clouds: Few Clouds
Visibility: 10 miles , 16 km
Cloud details: Few Clouds 1200 ft
2020/07/07 05:53 KSJC 070553Z 35006KT 10SM FEW012 16/09 A2999 RMK AO2 SLP156 T01560089 10244 20156 53007
KNUQ - Moffett Nas/Mtn, California, USA
Distance from station: N 9mi, 14km
Updated: Mon, 06-Jul-2020 11:35pm PDT
Partly cloudy
Partly cloudy
 Wind from S
Wind: S 3 mph , 6 km/h
Temperature: 61°F , 16°C
Dew Point: 50°F , 10°C
Humidity: 68%
Barometer: 29.99 inHg , 1015.6 hPa
Clouds: Partly cloudy
Visibility: 10 miles , 16 km
Cloud details: Partly cloudy 1200 ft
2020/07/07 06:35 KNUQ 070635Z AUTO 17003KT 10SM SCT012 16/10 A2999 RMK AO2
KPAO - Palo Alto, California, USA
Distance from station: NNW 14mi, 23km
Updated: Mon, 06-Jul-2020 3:47pm PDT
NOT Current
Clear
Clear
 Wind from NW
Wind: NW 20 mph , 31 km/h
Temperature: 75°F , 24°C
Dew Point: 45°F , 7°C
Humidity: 34%
Barometer: 29.97 inHg , 1014.9 hPa
Clouds: Clear
Visibility: 10 miles , 16 km
2020/07/06 22:47 KPAO 062247Z 31017KT 10SM SKC 24/07 A2997 RMK LAST
 
KRHV - San Jose/Reid, California, USA
Distance from station: ENE 12mi, 19km
Updated: Mon, 06-Jul-2020 9:47pm PDT
NOT Current
Clear
Clear
 Wind from NNW
Wind: NNW 8 mph , 13 km/h
Temperature: 63°F , 17°C
Dew Point: 48°F , 9°C
Humidity: 59%
Barometer: 29.99 inHg , 1015.6 hPa
Clouds: Clear
Visibility: 10 miles , 16 km
2020/07/07 04:47 KRHV 070447Z 33007KT 10SM SKC 17/09 A2999 RMK LAST
KOAK - Oakland, California, USA
Distance from station: NNW 31mi, 50km
Updated: Mon, 06-Jul-2020 10:53pm PDT
Few Clouds
Few Clouds
 Wind from W
Wind: W 15 mph , 24 km/h
Temperature: 59°F , 15°C
Dew Point: 52°F , 11°C
Humidity: 77%
Barometer: 29.98 inHg , 1015.2 hPa
Clouds: Few Clouds
Visibility: 10 miles , 16 km
Cloud details: Few Clouds 1200 ft
Few Clouds 25000 ft
2020/07/07 05:53 KOAK 070553Z 26013KT 10SM FEW012 FEW250 15/11 A2998 RMK AO2 SLP150 T01500106 10206 20150 53004 $
KSQL - San Carlos Airpo, California, USA
Distance from station: NW 21mi, 34km
Updated: Mon, 06-Jul-2020 11:35pm PDT
Clear
Clear
 Wind from W
Wind: W 10 mph , 17 km/h
Temperature: 57°F , 14°C
Dew Point: 48°F , 9°C
Humidity: 72%
Barometer: 30.00 inHg , 1015.9 hPa
Clouds: Clear
Visibility: 10 miles , 16 km
2020/07/07 06:35 KSQL 070635Z AUTO 26009KT 10SM CLR 14/09 A3000 RMK AO2
 
KSFO - San Francisco, California, USA
Distance from station: NW 30mi, 49km
Updated: Mon, 06-Jul-2020 10:56pm PDT
Clear
Clear
 Wind from W
Wind: W 35 mph , 56 km/h, Gust: 44 mph , 70 km/h
Temperature: 55°F , 13°C
Dew Point: 48°F , 9°C
Humidity: 77%
Barometer: 29.97 inHg , 1014.9 hPa
Clouds: Clear
Visibility: 10 miles , 16 km
2020/07/07 05:56 KSFO 070556Z 27030G38KT 10SM CLR 13/09 A2997 RMK AO2 PK WND 27038/0556 SLP147 T01280089 10178 20128 50000
KE16 - San Martin, California, USA
Distance from station: ESE 27mi, 43km
Updated: Tue, 09-Jun-2020 1:20pm PDT
NOT Current
Clear
Clear
 Wind from NW
Wind: NW 10 mph , 17 km/h
Temperature: 86°F , 30°C
Dew Point: 36°F , 2°C
Humidity: 17%
Barometer: 30.13 inHg , 1020.3 hPa
Clouds: Clear
Visibility: 10 miles , 16 km
2020/06/09 20:20 KE16 092020Z AUTO 31009KT 290V350 10SM CLR 30/02 A3013 RMK AO2 PWINO PNO
KWVI - Watsonville, California, USA
Distance from station: SSE 27mi, 44km
Updated: Mon, 06-Jul-2020 10:53pm PDT
Clear
Clear
 Wind from ENE
Wind: ENE 3 mph , 6 km/h
Temperature: 55°F , 13°C
Dew Point: 52°F , 11°C
Humidity: 88%
Barometer: 30.01 inHg , 1016.3 hPa
Clouds: Clear
Visibility: 10 miles , 16 km
2020/07/07 05:53 KWVI 070553Z AUTO 06003KT 10SM CLR 13/11 A3001 RMK AO2 SLP162 T01330106 10239 20133 51013
 
KHAF - Half Moon Bay, California, USA
Distance from station: WNW 31mi, 50km
Updated: Mon, 06-Jul-2020 11:40pm PDT
Mostly cloudy
Mostly cloudy
 Wind from NNW
Wind: NNW 9 mph , 15 km/h
Temperature: 55°F , 13°C
Dew Point: 50°F , 10°C
Humidity: 82%
Barometer: 30.02 inHg , 1016.6 hPa
Clouds: Mostly cloudy
Visibility: 7 miles , 11 km
Cloud details: Mostly cloudy 1600 ft
2020/07/07 06:40 KHAF 070640Z AUTO 33008KT 7SM BKN016 13/10 A3002 RMK AO2
KHWD - Hayward, California, USA
Distance from station: N 28mi, 44km
Updated: Mon, 06-Jul-2020 10:54pm PDT
Clear
Clear
 Wind from WSW
Wind: WSW 13 mph , 20 km/h
Temperature: 59°F , 15°C
Dew Point: 50°F , 10°C
Humidity: 72%
Barometer: 29.98 inHg , 1015.2 hPa
Clouds: Clear
Visibility: 10 miles , 16 km
2020/07/07 05:54 KHWD 070554Z AUTO 25011KT 10SM CLR 15/10 A2998 RMK AO2 SLP161 T01500100 10194 20150 51005
KLVK - Livermore, California, USA
Distance from station: NNE 31mi, 51km
Updated: Mon, 06-Jul-2020 10:53pm PDT
Clear
Clear
 Wind from WNW
Wind: WNW 3 mph , 6 km/h
Temperature: 57°F , 14°C
Dew Point: 50°F , 10°C
Humidity: 77%
Barometer: 29.97 inHg , 1014.9 hPa
Clouds: Clear
Visibility: 10 miles , 16 km
2020/07/07 05:53 KLVK 070553Z AUTO 29003KT 10SM CLR 14/10 A2997 RMK AO2 SLP146 T01390100 10244 20133 53009